Time;durP1;ratioP1;P1;durP2;ratioP2;P2;SDS_P1;SDS_P2;PMS_P1;PMS_P2;Temp;Humidity;BMP_temperature;BMP_pressure;BME280_temperature;BME280_humidity;BME280_pressure;Samples;Min_cycle;Max_cycle;Signal;HPM_P1;HPM_P2
2023/06/22 00:02:25;;;;;;;;;14.00;13.33;;;;;20.48;67.02;101962.94;5073990;28;9143;-67
2023/06/22 00:04:51;;;;;;;;;13.00;11.67;;;;;20.45;67.37;101962.53;5070519;28;9044;-67
2023/06/22 00:07:18;;;;;;;;;15.00;12.00;;;;;20.43;67.32;101964.66;5051891;28;9071;-67
2023/06/22 00:09:44;;;;;;;;;11.00;11.00;;;;;20.44;67.43;101969.91;5054648;28;8927;-67
2023/06/22 00:12:11;;;;;;;;;9.75;9.75;;;;;20.45;67.41;101968.81;5056586;28;8946;-67
2023/06/22 00:14:37;;;;;;;;;14.67;14.67;;;;;20.43;67.32;101965.50;5067233;28;8828;-68
2023/06/22 00:17:04;;;;;;;;;12.67;12.67;;;;;20.39;67.35;101974.41;5055644;28;8915;-67
2023/06/22 00:19:30;;;;;;;;;13.00;13.00;;;;;20.35;67.56;101965.00;5041836;28;9009;-68
2023/06/22 00:22:00;;;;;;;;;17.00;13.00;;;;;20.32;67.67;101969.03;5072709;28;8934;-68
2023/06/22 00:24:26;;;;;;;;;14.00;14.00;;;;;20.30;67.78;101967.59;5068692;28;8998;-67
2023/06/22 00:26:53;;;;;;;;;16.67;14.00;;;;;20.27;67.83;101968.88;5055272;28;8907;-67
2023/06/22 00:29:19;;;;;;;;;13.00;11.33;;;;;20.27;67.94;101965.31;5064468;28;8980;-68
2023/06/22 00:31:47;;;;;;;;;14.67;14.33;;;;;20.24;68.03;101970.19;5062899;28;9003;-66
2023/06/22 00:34:14;;;;;;;;;16.67;13.33;;;;;20.23;68.12;101965.78;5054980;28;9002;-69
2023/06/22 00:36:40;;;;;;;;;15.33;15.00;;;;;20.22;68.24;101963.28;5030400;28;9172;-68
2023/06/22 00:39:07;;;;;;;;;12.67;12.00;;;;;20.21;68.23;101962.44;5065201;28;9013;-69
2023/06/22 00:41:35;;;;;;;;;16.00;14.00;;;;;20.20;68.30;101963.50;5061451;28;9052;-70
2023/06/22 00:44:03;;;;;;;;;14.33;12.00;;;;;20.19;68.28;101963.75;5056617;28;9190;-69
2023/06/22 00:46:31;;;;;;;;;14.00;13.67;;;;;20.17;68.38;101961.22;5063949;28;9019;-69
2023/06/22 00:48:59;;;;;;;;;17.00;13.67;;;;;20.15;68.42;101965.28;5055830;28;9861;-69
2023/06/22 00:51:27;;;;;;;;;19.00;17.33;;;;;20.12;68.38;101961.09;5061956;28;9100;-68
2023/06/22 00:53:54;;;;;;;;;14.67;14.00;;;;;20.11;68.66;101958.59;5063531;28;9181;-68
2023/06/22 00:56:24;;;;;;;;;12.00;12.00;;;;;20.13;68.94;101953.72;5067846;28;9056;-67
2023/06/22 00:58:52;;;;;;;;;14.00;13.67;;;;;20.11;68.65;101953.13;5038604;28;9158;-69
2023/06/22 01:01:23;;;;;;;;;14.00;12.67;;;;;20.09;68.76;101955.25;5060232;28;9221;-68
2023/06/22 01:03:51;;;;;;;;;12.00;11.67;;;;;20.06;68.78;101950.25;5055265;28;9921;-68
2023/06/22 01:06:45;;;;;;;;;14.67;13.33;;;;;20.04;69.00;101946.91;5066725;28;9071;-69
2023/06/22 01:09:15;;;;;;;;;17.67;16.33;;;;;20.01;68.89;101950.94;5054152;28;9066;-67
2023/06/22 01:11:48;;;;;;;;;14.00;10.67;;;;;20.01;68.76;101940.00;5059511;28;9865;-66
2023/06/22 01:14:31;;;;;;;;;15.33;13.00;;;;;20.04;69.21;101945.00;5064683;28;9346;-68
2023/06/22 01:17:00;;;;;;;;;14.00;13.67;;;;;20.05;69.40;101946.66;5049335;28;9071;-67
2023/06/22 01:19:37;;;;;;;;;11.67;11.67;;;;;20.05;69.14;101937.63;5056171;28;9177;-67
2023/06/22 01:22:08;;;;;;;;;14.00;13.67;;;;;20.01;69.30;101942.72;5051964;28;9112;-67
2023/06/22 01:25:19;;;;;;;;;14.00;14.00;;;;;20.00;69.38;101939.16;5067000;28;9091;-67
2023/06/22 01:28:14;;;;;;;;;21.33;18.00;;;;;19.99;69.59;101947.59;5020095;28;9327;-67
2023/06/22 01:30:45;;;;;;;;;21.00;19.00;;;;;19.94;69.62;101937.38;5044889;28;9130;-67
2023/06/22 01:33:13;;;;;;;;;19.33;17.00;;;;;19.94;69.90;101939.25;5048644;28;9381;-67
2023/06/22 01:35:41;;;;;;;;;18.67;17.00;;;;;19.94;70.02;101936.53;5051206;28;9309;-67
2023/06/22 01:38:09;;;;;;;;;14.67;14.00;;;;;19.96;70.19;101943.41;5056597;28;9146;-67
2023/06/22 01:40:36;;;;;;;;;15.33;13.33;;;;;19.95;70.50;101946.41;5066888;28;9228;-67
2023/06/22 01:43:03;;;;;;;;;16.67;16.67;;;;;19.91;70.25;101939.72;5037556;28;9065;-67
2023/06/22 01:45:30;;;;;;;;;16.33;15.33;;;;;19.90;70.55;101935.31;5063477;28;9213;-67
2023/06/22 01:47:57;;;;;;;;;14.33;14.33;;;;;19.89;70.64;101941.84;5059405;28;9202;-67
2023/06/22 01:50:24;;;;;;;;;15.00;15.00;;;;;19.88;70.54;101946.47;5063781;28;9228;-67
2023/06/22 01:52:51;;;;;;;;;18.00;17.33;;;;;19.85;70.51;101943.34;5052407;28;9226;-67
2023/06/22 01:55:18;;;;;;;;;20.00;16.00;;;;;19.83;70.59;101932.66;5062392;28;9317;-68
2023/06/22 01:57:47;;;;;;;;;17.00;15.33;;;;;19.80;70.82;101935.84;5059175;28;9251;-67
2023/06/22 02:00:22;;;;;;;;;20.00;18.33;;;;;19.79;70.88;101941.56;5062109;28;9252;-67
2023/06/22 02:03:02;;;;;;;;;21.33;19.00;;;;;19.77;71.04;101933.59;5048874;28;9239;-67
2023/06/22 02:05:36;;;;;;;;;22.33;15.33;;;;;19.75;71.09;101931.06;5058601;28;9238;-67
2023/06/22 02:08:08;;;;;;;;;16.00;14.67;;;;;19.75;71.30;101942.00;5040602;28;9210;-67
2023/06/22 02:10:37;;;;;;;;;19.67;19.00;;;;;19.72;71.30;101931.53;5064994;28;8985;-67
2023/06/22 02:13:07;;;;;;;;;18.33;17.67;;;;;19.72;71.39;101930.69;5037591;28;9230;-67
2023/06/22 02:15:34;;;;;;;;;17.67;16.33;;;;;19.71;71.53;101934.50;5064846;28;9209;-67
2023/06/22 02:18:01;;;;;;;;;15.67;15.00;;;;;19.68;71.59;101929.47;5069858;28;9320;-67
2023/06/22 02:20:28;;;;;;;;;22.33;18.33;;;;;19.69;71.70;101934.72;5068144;28;9346;-67
2023/06/22 02:22:55;;;;;;;;;17.33;14.00;;;;;19.68;71.91;101929.47;5065314;28;9258;-67
2023/06/22 02:25:22;;;;;;;;;17.00;16.33;;;;;19.66;71.77;101916.06;5048682;28;9235;-67
2023/06/22 02:27:48;;;;;;;;;15.67;15.67;;;;;19.65;71.82;101919.03;5057109;28;9275;-67
2023/06/22 02:30:16;;;;;;;;;20.00;19.00;;;;;19.62;71.89;101914.03;5063506;28;9301;-67
2023/06/22 02:32:43;;;;;;;;;17.00;16.33;;;;;19.61;71.82;101917.78;5044935;28;9222;-69
2023/06/22 02:35:10;;;;;;;;;19.67;17.67;;;;;19.59;71.93;101919.91;5063939;28;9266;-69
2023/06/22 02:37:41;;;;;;;;;20.00;17.00;;;;;19.57;71.91;101917.41;5058035;28;9315;-69
2023/06/22 02:40:08;;;;;;;;;19.33;18.00;;;;;19.55;71.91;101911.31;5056036;28;9351;-69
2023/06/22 02:42:36;;;;;;;;;17.67;16.67;;;;;19.55;71.95;101918.69;5065202;28;9393;-68
2023/06/22 02:45:03;;;;;;;;;22.67;19.00;;;;;19.51;72.05;101923.75;5051577;28;10252;-69
2023/06/22 02:47:30;;;;;;;;;18.67;18.67;;;;;19.48;72.10;101925.03;5062141;28;9256;-69
2023/06/22 02:49:57;;;;;;;;;18.67;17.67;;;;;19.45;72.34;101916.50;5046622;28;9293;-69
2023/06/22 02:52:24;;;;;;;;;20.00;17.00;;;;;19.45;72.46;101914.59;5050678;28;9315;-69
2023/06/22 02:54:51;;;;;;;;;25.00;22.67;;;;;19.45;72.35;101908.31;5068372;28;9165;-69
2023/06/22 02:57:18;;;;;;;;;17.67;16.00;;;;;19.42;72.50;101912.31;5062985;28;9381;-70
2023/06/22 02:59:45;;;;;;;;;17.33;15.33;;;;;19.42;72.55;101908.75;5057728;28;9228;-68
2023/06/22 03:02:12;;;;;;;;;17.67;17.67;;;;;19.41;72.59;101915.28;5054893;28;9213;-68
2023/06/22 03:04:40;;;;;;;;;16.67;14.33;;;;;19.37;72.49;101912.16;5064676;28;9296;-68
2023/06/22 03:07:07;;;;;;;;;17.33;15.67;;;;;19.36;72.42;101910.47;5053813;28;10020;-67
2023/06/22 03:09:34;;;;;;;;;12.67;12.33;;;;;19.34;72.24;101909.06;5060601;28;9235;-66
2023/06/22 03:12:02;;;;;;;;;17.67;17.67;;;;;19.32;72.50;101905.69;5056760;28;9372;-68
2023/06/22 03:14:38;;;;;;;;;19.00;14.00;;;;;19.31;72.58;101907.59;5053198;28;9459;-68
2023/06/22 03:17:06;;;;;;;;;18.67;17.33;;;;;19.31;72.62;101912.22;5037622;28;9226;-68
2023/06/22 03:19:32;;;;;;;;;15.00;13.00;;;;;19.31;72.59;101906.75;5061965;28;9232;-66
2023/06/22 03:22:00;;;;;;;;;15.67;13.67;;;;;19.34;72.71;101898.97;5028053;28;9014;-67
2023/06/22 03:24:29;;;;;;;;;18.00;17.67;;;;;19.34;72.91;101900.84;5057907;28;9342;-68
2023/06/22 03:26:56;;;;;;;;;18.33;18.33;;;;;19.36;73.04;101906.91;5051418;28;9251;-68
2023/06/22 03:29:23;;;;;;;;;13.67;12.67;;;;;19.36;72.95;101906.91;5062951;28;9967;-67
2023/06/22 03:31:50;;;;;;;;;12.33;12.00;;;;;19.35;73.12;101922.47;5048475;28;9232;-68
2023/06/22 03:34:17;;;;;;;;;14.67;11.67;;;;;19.35;73.30;101914.28;5061534;28;9990;-67
2023/06/22 03:36:45;;;;;;;;;14.33;12.67;;;;;19.35;73.10;101907.97;5051479;28;8990;-68
2023/06/22 03:39:11;;;;;;;;;16.33;14.00;;;;;19.35;72.98;101902.53;5064482;28;9755;-68
2023/06/22 03:41:40;;;;;;;;;16.33;14.33;;;;;19.33;72.90;101900.03;5048760;28;9216;-67
2023/06/22 03:44:06;;;;;;;;;15.00;13.33;;;;;19.31;73.04;101895.84;5076667;28;8974;-68
2023/06/22 03:46:33;;;;;;;;;12.00;12.00;;;;;19.31;73.19;101899.41;5056008;28;9072;-67
2023/06/22 03:48:59;;;;;;;;;13.67;13.67;;;;;19.32;73.29;101889.31;5068029;28;9015;-67
2023/06/22 03:51:29;;;;;;;;;17.00;14.00;;;;;19.31;73.57;101888.47;5049995;28;9115;-66
2023/06/22 03:53:55;;;;;;;;;15.00;14.67;;;;;19.32;73.49;101897.50;5063446;28;9228;-68
2023/06/22 03:56:22;;;;;;;;;20.33;19.00;;;;;19.32;73.84;101902.97;5057653;28;9150;-68
2023/06/22 03:58:48;;;;;;;;;17.33;14.67;;;;;19.30;73.95;101903.19;5069248;28;9251;-67
2023/06/22 04:01:16;;;;;;;;;16.00;15.33;;;;;19.31;74.24;101907.59;5054292;28;8999;-68
2023/06/22 04:03:43;;;;;;;;;15.00;13.67;;;;;19.30;74.25;101897.75;5060454;28;9488;-67
2023/06/22 04:06:09;;;;;;;;;16.67;14.33;;;;;19.30;74.24;101905.09;5059841;28;9302;-68
2023/06/22 04:08:36;;;;;;;;;19.33;16.33;;;;;19.30;74.55;101896.91;5052115;28;9156;-68
2023/06/22 04:11:03;;;;;;;;;18.00;16.00;;;;;19.31;74.67;101896.69;5063218;28;9155;-68
2023/06/22 04:13:29;;;;;;;;;21.33;18.33;;;;;19.33;74.56;101893.75;5057563;28;9317;-67
2023/06/22 04:15:56;;;;;;;;;15.33;15.00;;;;;19.34;74.78;101893.50;5054368;28;9160;-67
2023/06/22 04:18:22;;;;;;;;;18.00;17.00;;;;;19.35;74.88;101881.50;5064279;28;9062;-67
2023/06/22 04:20:49;;;;;;;;;14.33;14.33;;;;;19.36;75.06;101885.91;5054307;28;9274;-68
2023/06/22 04:23:15;;;;;;;;;11.33;10.67;;;;;19.39;75.17;101884.63;5058662;28;9148;-68
2023/06/22 04:25:41;;;;;;;;;15.00;14.67;;;;;19.43;75.37;101880.38;5056844;28;8908;-68
2023/06/22 04:28:12;;;;;;;;;15.67;14.00;;;;;19.45;75.35;101876.38;5065949;28;9092;-67
2023/06/22 04:30:46;;;;;;;;;13.33;12.67;;;;;19.48;75.51;101885.97;5064709;28;9044;-67
2023/06/22 04:33:14;;;;;;;;;17.33;15.67;;;;;19.51;75.45;101880.06;5064487;28;9066;-69
2023/06/22 04:35:41;;;;;;;;;13.67;13.00;;;;;19.53;75.56;101877.97;5042131;28;9008;-68
2023/06/22 04:38:07;;;;;;;;;15.00;15.00;;;;;19.56;75.51;101890.31;5067739;28;8961;-67
2023/06/22 04:40:34;;;;;;;;;13.67;10.67;;;;;19.58;75.64;101885.47;5059790;28;9061;-68
2023/06/22 04:43:02;;;;;;;;;13.00;12.00;;;;;19.61;75.72;101885.88;5059161;28;9067;-66
2023/06/22 04:45:29;;;;;;;;;12.33;10.67;;;;;19.64;75.71;101893.59;5049215;28;9016;-66
2023/06/22 04:47:55;;;;;;;;;10.67;10.67;;;;;19.67;75.62;101892.31;5055193;28;8897;-68
2023/06/22 04:50:23;;;;;;;;;10.00;10.00;;;;;19.69;75.72;101888.28;5051818;28;8998;-67
2023/06/22 04:52:50;;;;;;;;;11.00;11.00;;;;;19.74;75.88;101891.16;5061722;28;9746;-67
2023/06/22 04:55:18;;;;;;;;;9.50;8.00;;;;;19.78;75.56;101897.00;5057041;28;9775;-67
2023/06/22 04:57:48;;;;;;;;;9.00;7.67;;;;;19.81;75.54;101891.09;5068322;28;9146;-67
2023/06/22 05:00:19;;;;;;;;;11.33;8.00;;;;;19.84;75.29;101890.59;5056139;28;9631;-65
2023/06/22 05:02:46;;;;;;;;;8.00;8.00;;;;;19.87;75.41;101890.16;5061331;28;8921;-68
2023/06/22 05:05:14;;;;;;;;;12.50;11.25;;;;;19.90;75.31;101889.69;5064596;28;8952;-66
2023/06/22 05:07:47;;;;;;;;;10.00;10.00;;;;;19.94;75.10;101888.16;5053611;28;9299;-67
2023/06/22 05:10:14;;;;;;;;;9.75;9.75;;;;;19.96;75.10;101883.28;5059202;28;8911;-67
2023/06/22 05:12:41;;;;;;;;;8.25;7.00;;;;;20.00;75.07;101886.41;5064557;28;8859;-68
2023/06/22 05:15:08;;;;;;;;;11.00;7.75;;;;;20.06;74.84;101885.50;5056992;28;8843;-67
2023/06/22 05:17:36;;;;;;;;;10.75;9.50;;;;;20.10;74.89;101891.31;5066385;28;8845;-68
2023/06/22 05:20:06;;;;;;;;;15.67;15.33;;;;;20.12;74.50;101900.94;5039755;28;8847;-68
2023/06/22 05:22:32;;;;;;;;;14.33;14.33;;;;;20.13;75.14;101897.13;5062956;28;9053;-68
2023/06/22 05:24:59;;;;;;;;;21.67;19.33;;;;;20.10;75.12;101894.06;5053438;28;8990;-69
2023/06/22 05:27:25;;;;;;;;;15.67;15.00;;;;;20.11;75.27;101880.16;5054614;28;9285;-68
2023/06/22 05:29:52;;;;;;;;;20.67;18.67;;;;;20.14;75.58;101887.91;5067075;28;8912;-68
2023/06/22 05:32:18;;;;;;;;;18.33;17.00;;;;;20.22;75.77;101881.25;5056520;28;9049;-68
2023/06/22 05:34:45;;;;;;;;;22.67;20.67;;;;;20.34;75.76;101878.56;5060986;28;8917;-69
2023/06/22 05:37:12;;;;;;;;;23.67;21.00;;;;;20.54;75.50;101878.25;5052845;28;9064;-68
2023/06/22 05:39:39;;;;;;;;;20.00;20.00;;;;;20.71;74.99;101879.25;5067169;28;9150;-68
2023/06/22 05:42:07;;;;;;;;;25.00;25.00;;;;;20.84;74.35;101872.72;5053317;28;8911;-67
2023/06/22 05:44:37;;;;;;;;;37.67;34.00;;;;;20.94;73.75;101878.41;5061929;28;9095;-67
2023/06/22 05:47:03;;;;;;;;;36.00;31.33;;;;;20.97;73.20;101884.25;5048670;28;9373;-68
2023/06/22 05:49:32;;;;;;;;;35.67;32.67;;;;;20.95;73.27;101886.41;5061475;28;9923;-66
2023/06/22 05:52:00;;;;;;;;;38.50;34.75;;;;;20.96;72.85;101885.31;5053860;28;9950;-67
2023/06/22 05:54:30;;;;;;;;;45.75;36.25;;;;;20.88;73.35;101885.69;5054359;28;9513;-67
2023/06/22 05:56:57;;;;;;;;;40.50;37.75;;;;;20.86;73.65;101897.91;5059071;28;9587;-66
2023/06/22 05:59:23;;;;;;;;;42.25;36.00;;;;;20.74;73.88;101893.31;5061743;28;9605;-67
2023/06/22 06:01:50;;;;;;;;;38.25;34.75;;;;;20.67;74.46;101895.31;5066667;28;9611;-68
2023/06/22 06:04:18;;;;;;;;;47.00;37.00;;;;;20.60;75.25;101902.78;5055730;28;9442;-68
2023/06/22 06:06:46;;;;;;;;;37.33;33.67;;;;;20.60;75.19;101899.22;5068621;28;9908;-66
2023/06/22 06:09:16;;;;;;;;;28.00;26.00;;;;;20.63;75.01;101905.06;5043879;28;9463;-65
2023/06/22 06:11:42;;;;;;;;;47.75;40.75;;;;;20.66;74.49;101899.13;5030821;28;9398;-65
2023/06/22 06:14:09;;;;;;;;;36.25;34.50;;;;;20.61;74.76;101896.22;5028829;28;9748;-66
2023/06/22 06:16:36;;;;;;;;;44.25;38.00;;;;;20.57;75.38;101899.69;5061630;28;9707;-67
2023/06/22 06:19:02;;;;;;;;;47.75;40.00;;;;;20.55;75.51;101899.91;5030758;28;9850;-66
2023/06/22 06:21:28;;;;;;;;;46.25;38.00;;;;;20.56;76.11;101895.28;5030441;28;9996;-66
2023/06/22 06:23:56;;;;;;;;;31.67;30.67;;;;;20.61;76.05;101890.75;5029450;28;9828;-66
2023/06/22 06:26:27;;;;;;;;;46.75;39.75;;;;;20.69;75.92;101889.59;5030131;28;9668;-66
2023/06/22 06:28:55;;;;;;;;;33.75;30.50;;;;;20.72;75.88;101886.38;5040000;28;10107;-66
2023/06/22 06:31:23;;;;;;;;;40.50;36.50;;;;;20.74;75.54;101882.34;5050074;28;9552;-67
2023/06/22 06:33:50;;;;;;;;;34.00;28.50;;;;;20.80;74.98;101880.56;5050301;28;9524;-67
2023/06/22 06:36:16;;;;;;;;;40.75;37.75;;;;;20.83;74.64;101882.00;5049689;28;9506;-66
2023/06/22 06:38:43;;;;;;;;;34.00;30.00;;;;;20.85;74.61;101880.66;5049540;28;9696;-66
2023/06/22 06:41:09;;;;;;;;;29.25;27.50;;;;;20.88;74.28;101885.69;5049709;28;9327;-66
2023/06/22 06:43:36;;;;;;;;;23.00;22.00;;;;;20.91;73.88;101877.00;5048904;28;9404;-66
2023/06/22 06:46:03;;;;;;;;;24.33;22.00;;;;;20.98;73.85;101885.94;5050030;28;9290;-66
2023/06/22 06:48:30;;;;;;;;;42.25;35.25;;;;;21.05;73.15;101885.78;5049384;28;9039;-66
2023/06/22 06:50:56;;;;;;;;;44.00;40.00;;;;;21.00;72.67;101885.69;5050267;28;9676;-67
2023/06/22 06:53:23;;;;;;;;;44.00;39.25;;;;;20.89;73.27;101881.88;5049790;28;9862;-67
2023/06/22 06:55:49;;;;;;;;;46.75;38.00;;;;;20.88;73.75;101877.47;5047780;28;10456;-67
2023/06/22 06:58:16;;;;;;;;;48.00;41.00;;;;;20.89;73.99;101881.03;5065241;28;9951;-66
2023/06/22 07:00:43;;;;;;;;;41.50;37.50;;;;;20.85;74.05;101882.56;5062054;28;9932;-66
2023/06/22 07:03:10;;;;;;;;;51.25;41.25;;;;;20.88;73.97;101880.22;5030375;28;9592;-65
2023/06/22 07:05:36;;;;;;;;;42.00;36.00;;;;;20.87;74.13;101873.06;5029894;28;9747;-67
2023/06/22 07:08:03;;;;;;;;;29.67;29.00;;;;;20.90;74.09;101869.00;5030067;28;9454;-67
2023/06/22 07:10:29;;;;;;;;;39.00;34.50;;;;;20.97;73.88;101875.19;5028504;28;9382;-66
2023/06/22 07:12:57;;;;;;;;;37.25;35.75;;;;;20.97;73.91;101865.09;5029585;28;9584;-67
2023/06/22 07:15:23;;;;;;;;;28.67;28.33;;;;;21.07;73.72;101869.97;5029537;28;9531;-66
2023/06/22 07:17:50;;;;;;;;;42.00;37.00;;;;;21.15;73.51;101868.78;5029664;28;8981;-66
2023/06/22 07:20:17;;;;;;;;;44.50;38.00;;;;;21.18;72.72;101857.31;5064723;28;9315;-67
2023/06/22 07:22:47;;;;;;;;;40.00;37.25;;;;;21.19;72.72;101864.50;5065225;28;9600;-66
2023/06/22 07:25:17;;;;;;;;;33.00;33.00;;;;;21.21;73.09;101868.63;5065100;28;9800;-67
2023/06/22 07:27:57;;;;;;;;;40.00;37.00;;;;;21.27;72.51;101869.59;5063760;28;9312;-67
2023/06/22 07:30:23;;;;;;;;;29.67;29.00;;;;;21.32;72.75;101863.41;5040468;28;9589;-66
2023/06/22 07:32:50;;;;;;;;;41.00;36.00;;;;;21.36;72.55;101864.59;5055640;28;9210;-68
2023/06/22 07:35:17;;;;;;;;;45.25;38.25;;;;;21.43;72.10;101868.88;5032079;28;9532;-68
2023/06/22 07:37:43;;;;;;;;;40.00;37.25;;;;;21.43;71.89;101874.38;5033246;28;9706;-68
2023/06/22 07:40:10;;;;;;;;;38.25;34.50;;;;;21.43;71.83;101863.41;5033297;28;9686;-67
2023/06/22 07:42:37;;;;;;;;;46.50;39.00;;;;;21.44;71.28;101867.81;5033258;28;9442;-67
2023/06/22 07:45:04;;;;;;;;;42.25;36.50;;;;;21.44;71.44;101859.59;5031740;28;9549;-67
2023/06/22 07:47:34;;;;;;;;;26.67;26.67;;;;;21.45;71.26;101863.16;5039062;28;9523;-67
2023/06/22 07:50:02;;;;;;;;;32.67;28.00;;;;;21.48;71.29;101857.19;5053268;28;9060;-68
2023/06/22 07:52:29;;;;;;;;;35.50;35.00;;;;;21.50;70.52;101844.06;5053481;28;9082;-67
2023/06/22 07:54:55;;;;;;;;;38.50;34.25;;;;;21.51;70.13;101844.91;5052969;28;9597;-66
2023/06/22 07:57:22;;;;;;;;;39.25;36.00;;;;;21.50;70.58;101849.56;5043240;28;9606;-67
2023/06/22 07:59:48;;;;;;;;;46.25;40.25;;;;;21.49;70.63;101847.91;5050601;28;9740;-67
2023/06/22 08:02:15;;;;;;;;;36.33;34.67;;;;;21.51;70.76;101840.25;5062107;28;9733;-67
2023/06/22 08:04:42;;;;;;;;;41.50;36.25;;;;;21.56;70.98;101845.84;5061070;28;9427;-67
2023/06/22 08:07:09;;;;;;;;;46.00;41.50;;;;;21.64;71.01;101847.38;5051418;28;9585;-67
2023/06/22 08:09:36;;;;;;;;;32.33;30.33;;;;;21.68;71.15;101843.91;5068558;28;9803;-69
2023/06/22 08:12:03;;;;;;;;;20.67;20.33;;;;;21.75;71.02;101837.44;5061529;28;9495;-68
2023/06/22 08:14:30;;;;;;;;;34.75;33.75;;;;;21.85;70.68;101835.72;5032470;28;9163;-69
2023/06/22 08:16:56;;;;;;;;;54.00;46.00;;;;;21.84;70.28;101842.28;5044437;28;9455;-68
2023/06/22 08:19:23;;;;;;;;;51.75;43.00;;;;;21.80;70.37;101829.34;5051989;28;10000;-69
2023/06/22 08:21:49;;;;;;;;;59.50;48.25;;;;;21.75;70.50;101840.16;5052801;28;10084;-68
2023/06/22 08:24:16;;;;;;;;;56.00;46.00;;;;;21.72;70.54;101842.34;5052504;28;10444;-68
2023/06/22 08:26:42;;;;;;;;;49.00;41.00;;;;;21.66;70.33;101837.00;5051637;28;10335;-68
2023/06/22 08:29:09;;;;;;;;;34.75;32.75;;;;;21.74;70.48;101836.59;5034683;28;9954;-68
2023/06/22 08:31:36;;;;;;;;;36.00;34.50;;;;;21.84;70.73;101833.25;5051729;28;9500;-68
2023/06/22 08:34:02;;;;;;;;;46.00;38.50;;;;;21.90;69.65;101832.25;5059463;28;10269;-69
2023/06/22 08:36:32;;;;;;;;;40.25;36.00;;;;;21.90;69.70;101827.59;5063874;28;9630;-69
2023/06/22 08:39:01;;;;;;;;;38.33;36.67;;;;;21.93;69.61;101827.09;5052092;28;9774;-68
2023/06/22 08:41:28;;;;;;;;;36.75;34.00;;;;;21.88;68.85;101823.44;5051903;28;9259;-69
2023/06/22 08:43:55;;;;;;;;;30.33;28.67;;;;;21.83;69.17;101809.63;5051237;28;9372;-69
2023/06/22 08:46:24;;;;;;;;;38.75;34.00;;;;;21.86;69.75;101812.72;5050225;28;9193;-69
2023/06/22 08:48:50;;;;;;;;;43.50;38.00;;;;;21.94;69.15;101814.22;5051480;28;9465;-69
2023/06/22 08:51:17;;;;;;;;;24.33;22.00;;;;;22.04;69.52;101806.19;5050465;28;9711;-69
2023/06/22 08:53:45;;;;;;;;;24.00;22.67;;;;;22.15;69.39;101810.78;5050422;28;9022;-68
2023/06/22 08:56:11;;;;;;;;;22.00;20.25;;;;;22.27;69.31;101813.47;5051718;28;8972;-68
2023/06/22 08:58:38;;;;;;;;;41.00;35.50;;;;;22.28;68.65;101806.91;5040693;28;8838;-68
2023/06/22 09:01:04;;;;;;;;;34.33;31.33;;;;;22.30;68.34;101807.47;5061483;28;10354;-69
2023/06/22 09:03:32;;;;;;;;;43.33;35.67;;;;;22.29;68.34;101802.25;5067600;28;9147;-69
2023/06/22 09:05:59;;;;;;;;;39.67;36.00;;;;;22.29;68.58;101796.78;5054474;28;9324;-69
2023/06/22 09:08:26;;;;;;;;;49.00;41.25;;;;;22.31;68.50;101800.09;5057166;28;9247;-68
2023/06/22 09:10:52;;;;;;;;;37.33;32.33;;;;;22.29;69.04;101797.59;5059248;28;9844;-69
2023/06/22 09:13:19;;;;;;;;;38.00;35.33;;;;;22.38;69.40;101793.34;5058850;28;9215;-69
2023/06/22 09:15:45;;;;;;;;;37.67;34.67;;;;;22.44;69.36;101799.75;5065266;28;9205;-68
2023/06/22 09:18:13;;;;;;;;;33.33;32.33;;;;;22.48;69.38;101795.41;5054001;28;9443;-68
2023/06/22 09:20:40;;;;;;;;;35.00;33.33;;;;;22.54;69.06;101799.09;5065049;28;9506;-69
2023/06/22 09:23:06;;;;;;;;;33.67;33.67;;;;;22.58;69.48;101801.06;5061176;28;9309;-69
2023/06/22 09:25:32;;;;;;;;;33.33;30.67;;;;;22.62;69.08;101794.00;5066714;28;9256;-68
2023/06/22 09:27:59;;;;;;;;;33.00;32.00;;;;;22.71;68.60;101797.13;5054457;28;9086;-68
2023/06/22 09:30:25;;;;;;;;;38.00;32.00;;;;;22.70;68.55;101793.56;5066718;28;9447;-69
2023/06/22 09:32:52;;;;;;;;;32.33;28.67;;;;;22.74;68.83;101793.06;5058796;28;9139;-69
2023/06/22 09:35:19;;;;;;;;;52.50;44.75;;;;;22.70;68.51;101790.00;5055450;28;9360;-72
2023/06/22 09:37:46;;;;;;;;;44.25;36.75;;;;;22.65;69.25;101793.50;5065956;28;9749;-70
2023/06/22 09:40:15;;;;;;;;;48.33;39.00;;;;;22.69;68.79;101796.56;5052805;28;9610;-71
2023/06/22 09:42:42;;;;;;;;;34.33;33.00;;;;;22.70;69.03;101801.81;5064427;28;9455;-69
2023/06/22 09:45:09;;;;;;;;;46.25;39.50;;;;;22.69;68.57;101794.66;5060635;28;9257;-68
2023/06/22 09:47:36;;;;;;;;;51.00;43.00;;;;;22.69;67.85;101797.41;5055119;28;9557;-68
2023/06/22 09:50:03;;;;;;;;;50.25;39.50;;;;;22.63;67.19;101803.06;5065473;28;9903;-68
2023/06/22 09:52:29;;;;;;;;;32.67;30.67;;;;;22.59;68.26;101797.25;5046989;28;9604;-68
2023/06/22 09:55:15;;;;;;;;;28.33;25.33;;;;;22.70;68.35;101795.50;5059938;28;8988;-68
2023/06/22 09:57:41;;;;;;;;;36.67;35.00;;;;;22.81;68.26;101796.44;5054500;28;9011;-68
2023/06/22 10:00:09;;;;;;;;;34.33;31.33;;;;;22.83;67.61;101792.38;5067153;28;9075;-68
2023/06/22 10:02:35;;;;;;;;;34.00;33.33;;;;;22.79;67.36;101780.25;5054010;28;9244;-68
2023/06/22 10:05:02;;;;;;;;;43.25;39.00;;;;;22.80;66.72;101781.06;5052116;28;9370;-68
2023/06/22 10:07:29;;;;;;;;;49.25;40.25;;;;;22.81;67.25;101783.56;5052084;28;9548;-68
2023/06/22 10:09:56;;;;;;;;;38.33;35.33;;;;;22.83;67.50;101775.91;5052383;28;9447;-68
2023/06/22 10:12:22;;;;;;;;;28.00;28.00;;;;;22.88;67.69;101772.41;5066679;28;9062;-70
2023/06/22 10:14:49;;;;;;;;;51.50;42.75;;;;;22.86;66.86;101778.16;5057498;28;9029;-69
2023/06/22 10:17:16;;;;;;;;;34.67;34.33;;;;;22.81;67.22;101764.34;5058383;28;9762;-68
2023/06/22 10:19:42;;;;;;;;;33.00;32.67;;;;;22.78;66.52;101762.13;5056354;28;9377;-68
2023/06/22 10:22:09;;;;;;;;;40.67;36.67;;;;;22.71;67.09;101764.19;5061687;28;9162;-68
2023/06/22 10:24:35;;;;;;;;;32.33;31.00;;;;;22.71;67.42;101778.75;5044851;28;9168;-68
2023/06/22 10:27:02;;;;;;;;;25.00;23.67;;;;;22.74;67.02;101771.94;5048620;28;9026;-68
2023/06/22 10:29:28;;;;;;;;;38.67;34.33;;;;;22.81;66.98;101766.25;5041227;28;9016;-68
2023/06/22 10:31:55;;;;;;;;;38.33;35.00;;;;;22.82;67.29;101767.94;5042367;28;9045;-68
2023/06/22 10:34:21;;;;;;;;;44.75;36.75;;;;;22.77;67.84;101770.59;5055772;28;9355;-69
2023/06/22 10:36:48;;;;;;;;;36.67;35.00;;;;;22.79;67.51;101771.19;5056461;28;9468;-69
2023/06/22 10:39:15;;;;;;;;;30.00;29.00;;;;;22.81;67.93;101758.88;5053158;28;9319;-69
2023/06/22 10:41:41;;;;;;;;;25.25;23.00;;;;;22.89;67.85;101765.84;5050265;28;9865;-69
2023/06/22 10:44:08;;;;;;;;;34.67;33.00;;;;;22.91;67.08;101770.00;5050412;28;8832;-69
2023/06/22 10:46:35;;;;;;;;;26.33;26.33;;;;;22.90;66.80;101773.84;5052400;28;9168;-69
2023/06/22 10:49:01;;;;;;;;;33.00;31.67;;;;;22.86;66.61;101769.09;5056304;28;9204;-69
2023/06/22 10:51:28;;;;;;;;;28.00;23.00;;;;;22.90;67.62;101770.25;5051929;28;9403;-69
2023/06/22 10:53:54;;;;;;;;;27.33;27.00;;;;;22.93;67.37;101772.50;5048836;28;9743;-69
2023/06/22 10:56:21;;;;;;;;;25.75;22.00;;;;;22.96;67.70;101771.97;5054610;28;9093;-70
2023/06/22 10:58:47;;;;;;;;;28.00;25.00;;;;;22.98;67.73;101771.75;5053051;28;8816;-70
2023/06/22 11:01:14;;;;;;;;;28.00;25.00;;;;;22.95;67.71;101770.34;5047743;28;9012;-71
2023/06/22 11:04:00;;;;;;;;;28.33;26.33;;;;;22.90;67.52;101770.25;5057694;28;8974;-70
2023/06/22 11:06:27;;;;;;;;;35.33;32.67;;;;;22.89;67.26;101769.41;5047920;28;9003;-69
2023/06/22 11:08:53;;;;;;;;;30.33;28.67;;;;;22.79;67.59;101773.91;5061710;28;9078;-70
2023/06/22 11:11:30;;;;;;;;;34.67;30.00;;;;;22.76;68.38;101771.69;5063865;28;9001;-68
2023/06/22 11:13:56;;;;;;;;;34.00;32.00;;;;;22.78;68.00;101773.09;5050861;28;9050;-69
2023/06/22 11:16:23;;;;;;;;;35.67;34.00;;;;;22.73;67.82;101769.44;5049914;28;9182;-69
2023/06/22 11:18:49;;;;;;;;;27.00;26.00;;;;;22.71;67.93;101765.03;5050341;28;9384;-69
2023/06/22 11:21:16;;;;;;;;;27.50;27.25;;;;;22.76;68.35;101772.50;5050247;28;8912;-69